Stations météo

réclame
Mon MeteoGroup
Kinbrace, Grande-Bretagne (99016): Température de l'air & dewpoint: 19.09.2018 22:00:00 - 25.09.2018 22:00:00 (BST)Kinbrace, Grande-Bretagne (99016): Vitesse du vent & gusts: 19.09.2018 22:00:00 - 25.09.2018 22:00:00 (BST)Kinbrace, Grande-Bretagne (99016): Direction du vent: 19.09.2018 22:00:00 - 25.09.2018 22:00:00 (BST)Kinbrace, Grande-Bretagne (99016): Quantités de précipitations: 19.09.2018 22:00:00 - 25.09.2018 22:00:00 (BST)
Date & Time tt [°C] td [°C] ff [km/h] ff [knt] fx [km/h] fx [knt] dd rr [mm]
25.09.2018 22:00:00 13,2 11,9 11 6 - - SW -
25.09.2018 21:00:00 - - - - - - - -
25.09.2018 20:00:00 13,2 10,7 16 9 46 25 SW 0,0
25.09.2018 19:00:00 12,8 10,5 28 15 48 26 SW 0,0
25.09.2018 18:00:00 13,8 9,6 34 18 48 26 SSW 0,0
25.09.2018 17:00:00 13,1 8,9 18 10 52 28 S 0,0
25.09.2018 16:00:00 13,6 8,8 34 18 57 31 SSW 0,0
25.09.2018 15:00:00 11,7 7,1 21 11 - - SE 0,0
25.09.2018 14:00:00 11,4 5,4 22 12 - - SSE 0,0
25.09.2018 13:00:00 11,7 4,3 26 14 - - SSE 0,0
25.09.2018 12:00:00 10,8 5,6 26 14 - - S 0,0
25.09.2018 11:00:00 10,1 5,2 28 15 - - S 0,0
25.09.2018 10:00:00 10,1 6,0 26 14 - - S 0,0
25.09.2018 09:00:00 9,8 5,9 22 12 - - SSE 0,0
25.09.2018 08:00:00 9,4 5,0 21 11 - - SSE 0,0
25.09.2018 07:00:00 9,2 4,9 16 9 - - SSE 0,0
25.09.2018 06:00:00 8,1 4,5 5 3 - - SSW 0,0
25.09.2018 05:00:00 9,4 5,0 5 3 - - SE 0,0
25.09.2018 04:00:00 7,9 5,6 5 3 - - SW 0,0
25.09.2018 03:00:00 9,2 6,3 11 6 - - SE 0,0
25.09.2018 02:00:00 8,9 6,4 5 3 - - SE 0,0
25.09.2018 01:00:00 8,9 6,3 4 2 - - SE 0,0
25.09.2018 00:00:00 8,9 6,8 4 2 - - SSE 0,0
24.09.2018 23:00:00 8,6 7,1 8 4 - - S 0,0
24.09.2018 22:00:00 9,0 7,3 11 6 - - SW 0,0
24.09.2018 21:00:00 9,2 6,9 13 7 - - W 0,0
24.09.2018 20:00:00 8,4 6,3 5 3 - - S 0,0
24.09.2018 19:00:00 9,1 5,4 9 5 - - W 0,0
24.09.2018 18:00:00 10,0 6,3 13 7 - - W 0,0
24.09.2018 17:00:00 11,1 4,8 15 8 - - W 0,0
24.09.2018 16:00:00 12,6 5,9 21 11 - - WNW 0,0
24.09.2018 15:00:00 10,8 7,4 15 8 - - W 0,0
24.09.2018 14:00:00 11,7 5,9 21 11 46 25 WNW 0,0
24.09.2018 13:00:00 12,4 5,7 22 12 - - NW 0,0
24.09.2018 12:00:00 9,1 7,1 15 8 - - NW 0,4
24.09.2018 11:00:00 10,6 6,5 24 13 - - WNW 0,0
24.09.2018 10:00:00 7,8 5,8 9 5 - - NW 0,0
24.09.2018 09:00:00 6,7 5,0 11 6 - - NW 0,2
24.09.2018 08:00:00 3,4 2,7 2 1 - - N 0,0
24.09.2018 07:00:00 4,8 4,3 2 1 - - N 0,0
24.09.2018 06:00:00 4,3 3,6 4 2 - - SSE 0,4
24.09.2018 05:00:00 5,1 4,1 4 2 - - WSW 0,2
24.09.2018 04:00:00 3,7 2,8 4 2 - - NNW 0,0
24.09.2018 03:00:00 3,9 3,4 9 5 - - NNW 0,0
24.09.2018 02:00:00 3,7 3,0 8 4 - - N 0,0
24.09.2018 01:00:00 4,7 4,0 5 3 - - WNW 0,0
24.09.2018 00:00:00 4,7 3,9 8 4 - - NNW 0,0
23.09.2018 23:00:00 4,3 3,0 11 6 46 25 WNW 1,8
23.09.2018 22:00:00 3,8 2,3 4 2 - - NNW 0,0
23.09.2018 21:00:00 2,9 1,9 4 2 - - NE 0,0
23.09.2018 20:00:00 4,0 2,5 11 6 - - NW 0,2
23.09.2018 19:00:00 6,4 4,3 22 12 50 27 NW 0,0
23.09.2018 18:00:00 8,0 5,6 26 14 - - NW 0,2
23.09.2018 17:00:00 6,8 4,7 16 9 48 26 NW 0,4
23.09.2018 16:00:00 8,5 4,4 18 10 48 26 NNW 0,0
23.09.2018 15:00:00 11,3 4,3 26 14 - - NW 0,0
23.09.2018 14:00:00 9,7 6,5 21 11 - - WNW 0,0
23.09.2018 13:00:00 10,1 6,4 16 9 - - WNW 0,0
23.09.2018 12:00:00 6,8 4,8 18 10 - - NW 1,4
23.09.2018 11:00:00 8,8 5,3 13 7 - - NNW 0,0
23.09.2018 10:00:00 6,8 5,1 8 4 - - NW 0,0
23.09.2018 09:00:00 5,7 5,0 5 3 - - NE 0,0
23.09.2018 08:00:00 2,1 1,4 4 2 - - E 0,0
23.09.2018 07:00:00 3,1 2,2 4 2 - - N 0,2
23.09.2018 06:00:00 2,6 2,3 4 2 - - N 0,2
23.09.2018 05:00:00 2,4 2,0 4 2 - - SE 0,4
23.09.2018 04:00:00 2,7 2,4 5 3 - - E 0,0
23.09.2018 03:00:00 2,0 1,7 4 2 - - N 0,0
23.09.2018 02:00:00 1,2 0,7 5 3 - - SSE 0,0
23.09.2018 01:00:00 1,9 1,4 5 3 - - SSE 0,0
23.09.2018 00:00:00 1,8 1,4 4 2 - - SE 0,0
22.09.2018 23:00:00 2,5 2,1 9 5 - - E 0,0
22.09.2018 22:00:00 3,7 2,9 5 3 - - ESE 0,0
22.09.2018 21:00:00 4,1 3,1 2 1 - - NW 0,0
22.09.2018 20:00:00 5,2 3,2 5 3 - - NNW 0,0
22.09.2018 19:00:00 7,5 5,0 9 5 - - NNW 0,0
22.09.2018 18:00:00 9,9 5,2 21 11 - - NW 0,0
22.09.2018 17:00:00 9,9 4,5 24 13 - - NNW 0,0
22.09.2018 16:00:00 9,1 6,5 22 12 - - NW 0,4
22.09.2018 15:00:00 11,4 6,5 26 14 - - WNW 0,0
22.09.2018 14:00:00 12,1 7,3 24 13 - - WNW 0,0
22.09.2018 13:00:00 9,4 5,8 28 15 46 25 NW 0,2
22.09.2018 12:00:00 10,6 6,1 28 15 - - NW 0,0
22.09.2018 11:00:00 10,3 6,5 29 16 - - WNW 0,0
22.09.2018 10:00:00 9,1 6,9 26 14 - - WNW 0,0
22.09.2018 09:00:00 8,2 6,6 21 11 - - W 0,2
22.09.2018 08:00:00 7,4 6,3 24 13 - - WNW 1,8
22.09.2018 07:00:00 7,3 6,4 26 14 55 30 NW 1,6
22.09.2018 06:00:00 7,9 6,5 34 18 57 31 WNW 0,8
22.09.2018 05:00:00 7,4 4,9 26 14 48 26 WNW 0,0
22.09.2018 04:00:00 7,3 3,4 26 14 50 27 WNW 0,0
22.09.2018 03:00:00 7,5 3,7 26 14 - - W 0,0
22.09.2018 02:00:00 6,6 5,0 18 10 46 25 WNW 0,2
22.09.2018 01:00:00 5,9 4,5 29 16 57 31 WNW 0,8
22.09.2018 00:00:00 6,7 4,5 21 11 - - NW 0,0
21.09.2018 23:00:00 6,6 3,7 15 8 - - W 0,0
21.09.2018 22:00:00 6,2 3,2 16 9 - - W 0,0
21.09.2018 21:00:00 6,8 4,7 18 10 - - W 0,2
21.09.2018 20:00:00 6,0 3,9 11 6 - - NW 0,0
21.09.2018 19:00:00 7,8 4,4 15 8 - - WNW 0,0
21.09.2018 18:00:00 9,7 5,2 24 13 50 27 WNW 0,0
21.09.2018 17:00:00 10,9 4,4 31 17 48 26 WNW 0,0
21.09.2018 16:00:00 9,8 3,1 37 20 54 29 NW 0,0
21.09.2018 15:00:00 10,7 4,5 35 19 54 29 NW 0,0
21.09.2018 14:00:00 10,6 4,6 39 21 57 31 NNW 0,0
21.09.2018 13:00:00 9,1 4,5 37 20 54 29 NNW 0,0
21.09.2018 12:00:00 8,6 5,9 37 20 54 29 NNW 0,2
21.09.2018 11:00:00 8,6 5,2 31 17 50 27 NNW 0,0
21.09.2018 10:00:00 8,0 5,9 24 13 46 25 NNW 0,0
21.09.2018 09:00:00 7,5 6,5 22 12 - - N 0,6
21.09.2018 08:00:00 7,8 7,1 22 12 - - NNW 4,0
21.09.2018 07:00:00 7,7 7,3 24 13 55 30 NW 1,0
21.09.2018 06:00:00 7,1 6,2 34 18 50 27 W 0,8
21.09.2018 05:00:00 6,9 6,5 4 2 - - ESE 1,0
21.09.2018 04:00:00 6,9 6,3 4 2 - - E 0,4
21.09.2018 03:00:00 6,9 6,0 2 1 - - SE 0,0
21.09.2018 02:00:00 6,6 5,9 4 2 - - SSE 0,0
21.09.2018 01:00:00 7,1 5,8 2 1 - - ENE 0,0
21.09.2018 00:00:00 7,5 6,1 2 1 - - SE 0,0
20.09.2018 23:00:00 7,6 6,2 5 3 - - SSW 0,0
20.09.2018 22:00:00 8,5 6,5 4 2 - - SE 0,0
20.09.2018 21:00:00 8,6 7,1 4 2 - - SW 0,0
20.09.2018 20:00:00 9,3 7,5 8 4 - - WSW 0,0
20.09.2018 19:00:00 10,1 7,3 4 2 - - SW 0,0
20.09.2018 18:00:00 11,1 6,9 15 8 - - WSW 0,0
20.09.2018 17:00:00 12,4 6,8 26 14 - - W 0,0
20.09.2018 16:00:00 13,3 7,3 26 14 48 26 W 0,0
20.09.2018 15:00:00 12,6 8,1 29 16 55 30 W 0,0
20.09.2018 14:00:00 11,8 8,6 29 16 54 29 W 0,0
20.09.2018 13:00:00 11,0 7,8 29 16 52 28 W 0,0
20.09.2018 12:00:00 11,2 6,5 31 17 59 32 W 0,0
20.09.2018 11:00:00 10,9 5,4 24 13 - - WSW 0,0
20.09.2018 10:00:00 10,8 4,1 26 14 - - SW 0,0
20.09.2018 09:00:00 9,7 4,5 24 13 - - SSW 0,0
20.09.2018 08:00:00 8,6 4,5 22 12 - - SW 0,2
20.09.2018 07:00:00 8,0 4,1 16 9 - - SSW 0,0
20.09.2018 06:00:00 7,9 4,1 5 3 - - WSW 0,0
20.09.2018 05:00:00 7,6 5,5 8 4 - - SSW 1,0
20.09.2018 04:00:00 8,4 5,9 13 7 - - SW 0,4
20.09.2018 03:00:00 8,6 5,6 16 9 - - SSW 0,0
20.09.2018 02:00:00 8,2 5,6 16 9 - - S 0,0
20.09.2018 01:00:00 7,9 5,0 16 9 - - S 0,0
20.09.2018 00:00:00 8,3 4,7 16 9 - - SSW 0,0
19.09.2018 23:00:00 7,7 3,9 13 7 - - S 0,0
19.09.2018 22:00:00 8,6 4,5 15 8 52 28 SSW 0,0

tt = Température de l'air
td = dewpoint
ff = Vitesse du vent
fx = gusts
dd = Direction du vent
rr = Quantités de précipitations

stations d'obs. à proximité